sensor_id;sensor_type;location;lat;lon;timestamp;P1;durP1;ratioP1;P2;durP2;ratioP2
10571;SDS011;5334;48.928;12.704;2022-10-16T00:01:19;1999.90;;;999.90;;
10571;SDS011;5334;48.928;12.704;2022-10-16T00:03:48;1999.90;;;999.90;;
10571;SDS011;5334;48.928;12.704;2022-10-16T00:06:15;1999.90;;;999.90;;
10571;SDS011;5334;48.928;12.704;2022-10-16T00:08:42;1999.90;;;999.90;;
10571;SDS011;5334;48.928;12.704;2022-10-16T00:11:09;1999.90;;;999.90;;
10571;SDS011;5334;48.928;12.704;2022-10-16T00:13:43;1999.90;;;999.90;;
10571;SDS011;5334;48.928;12.704;2022-10-16T00:16:12;1999.90;;;999.90;;
10571;SDS011;5334;48.928;12.704;2022-10-16T00:18:39;1999.90;;;999.90;;
10571;SDS011;5334;48.928;12.704;2022-10-16T00:21:09;1999.90;;;999.90;;
10571;SDS011;5334;48.928;12.704;2022-10-16T00:23:37;1999.90;;;999.90;;
10571;SDS011;5334;48.928;12.704;2022-10-16T00:26:07;1999.90;;;999.90;;
10571;SDS011;5334;48.928;12.704;2022-10-16T00:28:35;1999.90;;;999.90;;
10571;SDS011;5334;48.928;12.704;2022-10-16T00:31:08;1999.90;;;999.90;;
10571;SDS011;5334;48.928;12.704;2022-10-16T00:33:36;1999.90;;;999.90;;
10571;SDS011;5334;48.928;12.704;2022-10-16T00:36:03;1999.90;;;999.90;;
10571;SDS011;5334;48.928;12.704;2022-10-16T00:38:30;1999.90;;;999.90;;
10571;SDS011;5334;48.928;12.704;2022-10-16T00:40:56;1999.90;;;999.90;;
10571;SDS011;5334;48.928;12.704;2022-10-16T00:46:04;1999.90;;;999.90;;
10571;SDS011;5334;48.928;12.704;2022-10-16T00:48:38;1999.90;;;999.90;;
10571;SDS011;5334;48.928;12.704;2022-10-16T00:51:04;1999.90;;;999.90;;
10571;SDS011;5334;48.928;12.704;2022-10-16T00:53:32;1999.90;;;999.90;;
10571;SDS011;5334;48.928;12.704;2022-10-16T00:55:58;1999.90;;;999.90;;
10571;SDS011;5334;48.928;12.704;2022-10-16T00:58:24;1999.90;;;999.90;;
10571;SDS011;5334;48.928;12.704;2022-10-16T01:00:50;1999.90;;;999.90;;
10571;SDS011;5334;48.928;12.704;2022-10-16T01:03:23;1999.90;;;999.90;;
10571;SDS011;5334;48.928;12.704;2022-10-16T01:08:44;1999.90;;;999.90;;
10571;SDS011;5334;48.928;12.704;2022-10-16T01:17:21;1999.90;;;999.90;;
10571;SDS011;5334;48.928;12.704;2022-10-16T01:22:19;1999.90;;;999.90;;
10571;SDS011;5334;48.928;12.704;2022-10-16T01:24:48;1999.90;;;999.90;;
10571;SDS011;5334;48.928;12.704;2022-10-16T01:27:24;1999.90;;;999.90;;
10571;SDS011;5334;48.928;12.704;2022-10-16T01:32:33;1999.90;;;999.90;;
10571;SDS011;5334;48.928;12.704;2022-10-16T01:35:04;1999.90;;;999.90;;
10571;SDS011;5334;48.928;12.704;2022-10-16T01:37:43;1999.90;;;999.90;;
10571;SDS011;5334;48.928;12.704;2022-10-16T01:40:16;1999.90;;;999.90;;
10571;SDS011;5334;48.928;12.704;2022-10-16T01:42:50;1999.90;;;999.90;;
10571;SDS011;5334;48.928;12.704;2022-10-16T01:45:20;1999.90;;;999.90;;
10571;SDS011;5334;48.928;12.704;2022-10-16T01:47:47;1999.90;;;999.90;;
10571;SDS011;5334;48.928;12.704;2022-10-16T01:50:16;1999.90;;;999.90;;
10571;SDS011;5334;48.928;12.704;2022-10-16T01:52:45;1999.90;;;999.90;;
10571;SDS011;5334;48.928;12.704;2022-10-16T01:55:14;1999.90;;;999.90;;
10571;SDS011;5334;48.928;12.704;2022-10-16T01:57:45;1999.90;;;999.90;;
10571;SDS011;5334;48.928;12.704;2022-10-16T02:00:14;1999.90;;;999.90;;
10571;SDS011;5334;48.928;12.704;2022-10-16T02:02:43;1999.90;;;999.90;;
10571;SDS011;5334;48.928;12.704;2022-10-16T02:05:13;1999.90;;;999.90;;
10571;SDS011;5334;48.928;12.704;2022-10-16T02:07:45;1999.90;;;999.90;;
10571;SDS011;5334;48.928;12.704;2022-10-16T02:10:11;1999.90;;;999.90;;
10571;SDS011;5334;48.928;12.704;2022-10-16T02:12:37;1999.90;;;999.90;;
10571;SDS011;5334;48.928;12.704;2022-10-16T02:15:07;1999.90;;;999.90;;
10571;SDS011;5334;48.928;12.704;2022-10-16T02:17:33;1999.90;;;999.90;;
10571;SDS011;5334;48.928;12.704;2022-10-16T02:19:58;1999.90;;;999.90;;
10571;SDS011;5334;48.928;12.704;2022-10-16T02:22:30;1999.90;;;999.90;;
10571;SDS011;5334;48.928;12.704;2022-10-16T02:25:01;1999.90;;;999.90;;
10571;SDS011;5334;48.928;12.704;2022-10-16T02:30:34;1999.90;;;999.90;;
10571;SDS011;5334;48.928;12.704;2022-10-16T02:33:02;1999.90;;;999.90;;
10571;SDS011;5334;48.928;12.704;2022-10-16T02:35:29;1999.90;;;999.90;;
10571;SDS011;5334;48.928;12.704;2022-10-16T02:37:56;1999.90;;;999.90;;
10571;SDS011;5334;48.928;12.704;2022-10-16T02:40:22;1999.90;;;999.90;;
10571;SDS011;5334;48.928;12.704;2022-10-16T02:42:52;1999.90;;;999.90;;
10571;SDS011;5334;48.928;12.704;2022-10-16T02:45:20;1999.90;;;999.90;;
10571;SDS011;5334;48.928;12.704;2022-10-16T02:47:47;1999.90;;;999.90;;
10571;SDS011;5334;48.928;12.704;2022-10-16T02:50:13;1999.90;;;999.90;;
10571;SDS011;5334;48.928;12.704;2022-10-16T02:52:39;1999.90;;;999.90;;
10571;SDS011;5334;48.928;12.704;2022-10-16T02:55:05;1999.90;;;999.90;;
10571;SDS011;5334;48.928;12.704;2022-10-16T02:57:31;1999.90;;;999.90;;
10571;SDS011;5334;48.928;12.704;2022-10-16T02:59:57;1999.90;;;999.90;;
10571;SDS011;5334;48.928;12.704;2022-10-16T03:02:23;1999.90;;;999.90;;
10571;SDS011;5334;48.928;12.704;2022-10-16T03:04:48;1999.90;;;999.90;;
10571;SDS011;5334;48.928;12.704;2022-10-16T03:07:14;1999.90;;;999.90;;
10571;SDS011;5334;48.928;12.704;2022-10-16T03:09:40;1999.90;;;999.90;;
10571;SDS011;5334;48.928;12.704;2022-10-16T03:12:06;1999.90;;;999.90;;
10571;SDS011;5334;48.928;12.704;2022-10-16T03:14:31;1999.90;;;999.90;;
10571;SDS011;5334;48.928;12.704;2022-10-16T03:16:57;1999.90;;;999.90;;
10571;SDS011;5334;48.928;12.704;2022-10-16T03:19:23;1999.90;;;999.90;;
10571;SDS011;5334;48.928;12.704;2022-10-16T03:21:49;1999.90;;;999.90;;
10571;SDS011;5334;48.928;12.704;2022-10-16T03:24:15;1999.90;;;999.90;;
10571;SDS011;5334;48.928;12.704;2022-10-16T03:26:40;1999.90;;;999.90;;
10571;SDS011;5334;48.928;12.704;2022-10-16T03:29:06;1999.90;;;999.90;;
10571;SDS011;5334;48.928;12.704;2022-10-16T03:31:32;1999.90;;;999.90;;
10571;SDS011;5334;48.928;12.704;2022-10-16T03:33:58;1999.90;;;999.90;;
10571;SDS011;5334;48.928;12.704;2022-10-16T03:36:23;1999.90;;;999.90;;
10571;SDS011;5334;48.928;12.704;2022-10-16T03:38:49;1999.90;;;999.90;;
10571;SDS011;5334;48.928;12.704;2022-10-16T03:41:15;1999.90;;;999.90;;
10571;SDS011;5334;48.928;12.704;2022-10-16T03:43:41;1999.90;;;999.90;;
10571;SDS011;5334;48.928;12.704;2022-10-16T03:46:06;1999.90;;;999.90;;
10571;SDS011;5334;48.928;12.704;2022-10-16T03:48:32;1999.90;;;999.90;;
10571;SDS011;5334;48.928;12.704;2022-10-16T03:50:58;1999.90;;;999.90;;
10571;SDS011;5334;48.928;12.704;2022-10-16T03:53:24;1999.90;;;999.90;;
10571;SDS011;5334;48.928;12.704;2022-10-16T03:55:50;1999.90;;;999.90;;
10571;SDS011;5334;48.928;12.704;2022-10-16T03:58:16;1999.90;;;999.90;;
10571;SDS011;5334;48.928;12.704;2022-10-16T04:00:45;1999.90;;;999.90;;
10571;SDS011;5334;48.928;12.704;2022-10-16T04:03:12;1999.90;;;999.90;;
10571;SDS011;5334;48.928;12.704;2022-10-16T04:05:38;1999.90;;;999.90;;
10571;SDS011;5334;48.928;12.704;2022-10-16T04:08:04;1999.90;;;999.90;;
10571;SDS011;5334;48.928;12.704;2022-10-16T04:10:30;1999.90;;;999.90;;
10571;SDS011;5334;48.928;12.704;2022-10-16T04:12:56;1999.90;;;999.90;;
10571;SDS011;5334;48.928;12.704;2022-10-16T04:15:25;1999.90;;;999.90;;
10571;SDS011;5334;48.928;12.704;2022-10-16T04:17:51;1999.90;;;999.90;;
10571;SDS011;5334;48.928;12.704;2022-10-16T04:20:17;1999.90;;;999.90;;
10571;SDS011;5334;48.928;12.704;2022-10-16T04:22:43;1999.90;;;999.90;;
10571;SDS011;5334;48.928;12.704;2022-10-16T04:25:09;1999.90;;;999.90;;
10571;SDS011;5334;48.928;12.704;2022-10-16T04:27:36;1999.90;;;999.90;;
10571;SDS011;5334;48.928;12.704;2022-10-16T04:30:02;1999.90;;;999.90;;
10571;SDS011;5334;48.928;12.704;2022-10-16T04:32:28;1999.90;;;999.90;;
10571;SDS011;5334;48.928;12.704;2022-10-16T04:34:54;1999.90;;;999.90;;
10571;SDS011;5334;48.928;12.704;2022-10-16T04:37:23;1999.90;;;999.90;;
10571;SDS011;5334;48.928;12.704;2022-10-16T04:39:52;1999.90;;;999.90;;
10571;SDS011;5334;48.928;12.704;2022-10-16T04:42:19;1999.90;;;999.90;;
10571;SDS011;5334;48.928;12.704;2022-10-16T04:44:45;1999.90;;;999.90;;
10571;SDS011;5334;48.928;12.704;2022-10-16T04:47:11;1999.90;;;999.90;;
10571;SDS011;5334;48.928;12.704;2022-10-16T04:49:38;1999.90;;;999.90;;
10571;SDS011;5334;48.928;12.704;2022-10-16T04:52:04;1999.90;;;999.90;;
10571;SDS011;5334;48.928;12.704;2022-10-16T04:54:30;1999.90;;;999.90;;
10571;SDS011;5334;48.928;12.704;2022-10-16T04:56:55;1999.90;;;999.90;;
10571;SDS011;5334;48.928;12.704;2022-10-16T04:59:21;1999.90;;;999.90;;
10571;SDS011;5334;48.928;12.704;2022-10-16T05:01:47;1999.90;;;999.90;;
10571;SDS011;5334;48.928;12.704;2022-10-16T05:04:14;1999.90;;;999.90;;
10571;SDS011;5334;48.928;12.704;2022-10-16T05:06:40;1999.90;;;999.90;;
10571;SDS011;5334;48.928;12.704;2022-10-16T05:09:05;1999.90;;;999.90;;
10571;SDS011;5334;48.928;12.704;2022-10-16T05:11:31;1999.90;;;999.90;;
10571;SDS011;5334;48.928;12.704;2022-10-16T05:13:57;1999.90;;;999.90;;
10571;SDS011;5334;48.928;12.704;2022-10-16T05:16:23;1999.90;;;999.90;;
10571;SDS011;5334;48.928;12.704;2022-10-16T05:18:48;1999.90;;;999.90;;
10571;SDS011;5334;48.928;12.704;2022-10-16T05:21:15;1999.90;;;999.90;;
10571;SDS011;5334;48.928;12.704;2022-10-16T05:23:41;1999.90;;;999.90;;
10571;SDS011;5334;48.928;12.704;2022-10-16T05:26:07;1999.90;;;999.90;;
10571;SDS011;5334;48.928;12.704;2022-10-16T05:28:33;1999.90;;;999.90;;
10571;SDS011;5334;48.928;12.704;2022-10-16T05:31:03;1999.90;;;999.90;;
10571;SDS011;5334;48.928;12.704;2022-10-16T05:33:32;1999.90;;;999.90;;
10571;SDS011;5334;48.928;12.704;2022-10-16T05:36:02;1999.90;;;999.90;;
10571;SDS011;5334;48.928;12.704;2022-10-16T05:38:29;1999.90;;;999.90;;
10571;SDS011;5334;48.928;12.704;2022-10-16T05:40:55;1999.90;;;999.90;;
10571;SDS011;5334;48.928;12.704;2022-10-16T05:43:21;1999.90;;;999.90;;
10571;SDS011;5334;48.928;12.704;2022-10-16T05:48:45;1999.90;;;999.90;;
10571;SDS011;5334;48.928;12.704;2022-10-16T05:51:11;1999.90;;;999.90;;
10571;SDS011;5334;48.928;12.704;2022-10-16T05:53:38;1999.90;;;999.90;;
10571;SDS011;5334;48.928;12.704;2022-10-16T05:56:05;1999.90;;;999.90;;
10571;SDS011;5334;48.928;12.704;2022-10-16T05:58:33;1999.90;;;999.90;;
10571;SDS011;5334;48.928;12.704;2022-10-16T06:03:52;1999.90;;;999.90;;
10571;SDS011;5334;48.928;12.704;2022-10-16T06:06:22;1999.90;;;999.90;;
10571;SDS011;5334;48.928;12.704;2022-10-16T06:08:51;1999.90;;;999.90;;
10571;SDS011;5334;48.928;12.704;2022-10-16T06:11:19;1999.90;;;999.90;;
10571;SDS011;5334;48.928;12.704;2022-10-16T06:13:52;1999.90;;;999.90;;
10571;SDS011;5334;48.928;12.704;2022-10-16T06:16:20;1999.90;;;999.90;;
10571;SDS011;5334;48.928;12.704;2022-10-16T06:18:45;1999.90;;;999.90;;
10571;SDS011;5334;48.928;12.704;2022-10-16T06:21:12;1999.90;;;999.90;;
10571;SDS011;5334;48.928;12.704;2022-10-16T06:23:41;1999.90;;;999.90;;
10571;SDS011;5334;48.928;12.704;2022-10-16T06:26:08;1999.90;;;999.90;;
10571;SDS011;5334;48.928;12.704;2022-10-16T06:28:38;1999.90;;;999.90;;
10571;SDS011;5334;48.928;12.704;2022-10-16T06:31:05;1999.90;;;999.90;;
10571;SDS011;5334;48.928;12.704;2022-10-16T06:33:32;1999.90;;;999.90;;
10571;SDS011;5334;48.928;12.704;2022-10-16T06:38:32;1999.90;;;999.90;;
10571;SDS011;5334;48.928;12.704;2022-10-16T06:40:58;1999.90;;;999.90;;
10571;SDS011;5334;48.928;12.704;2022-10-16T06:43:24;1999.90;;;999.90;;
10571;SDS011;5334;48.928;12.704;2022-10-16T06:45:59;1999.90;;;999.90;;
10571;SDS011;5334;48.928;12.704;2022-10-16T06:48:26;1999.90;;;999.90;;
10571;SDS011;5334;48.928;12.704;2022-10-16T06:53:30;1999.90;;;999.90;;
10571;SDS011;5334;48.928;12.704;2022-10-16T06:56:06;1999.90;;;999.90;;
10571;SDS011;5334;48.928;12.704;2022-10-16T06:58:36;1999.90;;;999.90;;
10571;SDS011;5334;48.928;12.704;2022-10-16T07:01:02;1999.90;;;999.90;;
10571;SDS011;5334;48.928;12.704;2022-10-16T07:03:28;1999.90;;;999.90;;
10571;SDS011;5334;48.928;12.704;2022-10-16T07:05:54;1999.90;;;999.90;;
10571;SDS011;5334;48.928;12.704;2022-10-16T07:08:19;1999.90;;;999.90;;
10571;SDS011;5334;48.928;12.704;2022-10-16T07:10:45;1999.90;;;999.90;;
10571;SDS011;5334;48.928;12.704;2022-10-16T07:13:11;1999.90;;;999.90;;
10571;SDS011;5334;48.928;12.704;2022-10-16T07:15:38;1999.90;;;999.90;;
10571;SDS011;5334;48.928;12.704;2022-10-16T07:18:05;1999.90;;;999.90;;
10571;SDS011;5334;48.928;12.704;2022-10-16T07:20:31;1999.90;;;999.90;;
10571;SDS011;5334;48.928;12.704;2022-10-16T07:22:56;1999.90;;;999.90;;
10571;SDS011;5334;48.928;12.704;2022-10-16T07:25:22;1999.90;;;999.90;;
10571;SDS011;5334;48.928;12.704;2022-10-16T07:27:48;1999.90;;;999.90;;
10571;SDS011;5334;48.928;12.704;2022-10-16T07:30:14;1999.90;;;999.90;;
10571;SDS011;5334;48.928;12.704;2022-10-16T07:32:39;1999.90;;;999.90;;
10571;SDS011;5334;48.928;12.704;2022-10-16T07:35:06;1999.90;;;999.90;;
10571;SDS011;5334;48.928;12.704;2022-10-16T07:37:31;1999.90;;;999.90;;
10571;SDS011;5334;48.928;12.704;2022-10-16T07:39:57;1999.90;;;999.90;;
10571;SDS011;5334;48.928;12.704;2022-10-16T07:42:23;1999.90;;;999.90;;
10571;SDS011;5334;48.928;12.704;2022-10-16T07:44:48;1999.90;;;999.90;;
10571;SDS011;5334;48.928;12.704;2022-10-16T07:47:14;1999.90;;;999.90;;
10571;SDS011;5334;48.928;12.704;2022-10-16T07:49:40;1999.90;;;999.90;;
10571;SDS011;5334;48.928;12.704;2022-10-16T07:52:06;1999.90;;;999.90;;
10571;SDS011;5334;48.928;12.704;2022-10-16T07:54:31;1999.90;;;999.90;;
10571;SDS011;5334;48.928;12.704;2022-10-16T07:56:57;1999.90;;;999.90;;
10571;SDS011;5334;48.928;12.704;2022-10-16T07:59:23;1999.90;;;999.90;;
10571;SDS011;5334;48.928;12.704;2022-10-16T08:01:48;1999.90;;;999.90;;
10571;SDS011;5334;48.928;12.704;2022-10-16T08:04:15;1999.90;;;999.90;;
10571;SDS011;5334;48.928;12.704;2022-10-16T08:06:40;1999.90;;;999.90;;
10571;SDS011;5334;48.928;12.704;2022-10-16T08:09:07;1999.90;;;999.90;;
10571;SDS011;5334;48.928;12.704;2022-10-16T08:11:33;1999.90;;;999.90;;
10571;SDS011;5334;48.928;12.704;2022-10-16T08:13:59;1999.90;;;999.90;;
10571;SDS011;5334;48.928;12.704;2022-10-16T08:16:25;1999.90;;;999.90;;
10571;SDS011;5334;48.928;12.704;2022-10-16T08:18:51;1999.90;;;999.90;;
10571;SDS011;5334;48.928;12.704;2022-10-16T08:21:18;1999.90;;;999.90;;
10571;SDS011;5334;48.928;12.704;2022-10-16T08:23:48;1999.90;;;999.90;;
10571;SDS011;5334;48.928;12.704;2022-10-16T08:26:15;1999.90;;;999.90;;
10571;SDS011;5334;48.928;12.704;2022-10-16T08:28:40;1999.90;;;999.90;;
10571;SDS011;5334;48.928;12.704;2022-10-16T08:31:10;1999.90;;;999.90;;
10571;SDS011;5334;48.928;12.704;2022-10-16T08:33:38;1999.90;;;999.90;;
10571;SDS011;5334;48.928;12.704;2022-10-16T08:36:06;1999.90;;;999.90;;
10571;SDS011;5334;48.928;12.704;2022-10-16T08:38:32;1999.90;;;999.90;;
10571;SDS011;5334;48.928;12.704;2022-10-16T08:41:08;1999.90;;;999.90;;
10571;SDS011;5334;48.928;12.704;2022-10-16T08:46:20;1999.90;;;999.90;;
10571;SDS011;5334;48.928;12.704;2022-10-16T08:48:53;1999.90;;;999.90;;
10571;SDS011;5334;48.928;12.704;2022-10-16T08:51:26;1999.90;;;999.90;;
10571;SDS011;5334;48.928;12.704;2022-10-16T08:56:38;1999.90;;;999.90;;
10571;SDS011;5334;48.928;12.704;2022-10-16T08:59:04;1999.90;;;999.90;;
10571;SDS011;5334;48.928;12.704;2022-10-16T09:01:39;1999.90;;;999.90;;
10571;SDS011;5334;48.928;12.704;2022-10-16T09:16:01;1999.90;;;999.90;;
10571;SDS011;5334;48.928;12.704;2022-10-16T09:21:40;1999.90;;;999.90;;
10571;SDS011;5334;48.928;12.704;2022-10-16T09:24:18;1999.90;;;999.90;;
10571;SDS011;5334;48.928;12.704;2022-10-16T09:26:46;1999.90;;;999.90;;
10571;SDS011;5334;48.928;12.704;2022-10-16T09:29:12;1999.90;;;999.90;;
10571;SDS011;5334;48.928;12.704;2022-10-16T09:31:40;1999.90;;;999.90;;
10571;SDS011;5334;48.928;12.704;2022-10-16T09:34:06;1999.90;;;999.90;;
10571;SDS011;5334;48.928;12.704;2022-10-16T09:36:54;1999.90;;;999.90;;
10571;SDS011;5334;48.928;12.704;2022-10-16T09:39:22;1999.90;;;999.90;;
10571;SDS011;5334;48.928;12.704;2022-10-16T09:41:48;1999.90;;;999.90;;
10571;SDS011;5334;48.928;12.704;2022-10-16T09:44:19;1999.90;;;999.90;;
10571;SDS011;5334;48.928;12.704;2022-10-16T09:46:48;1999.90;;;999.90;;
10571;SDS011;5334;48.928;12.704;2022-10-16T09:49:22;1999.90;;;999.90;;
10571;SDS011;5334;48.928;12.704;2022-10-16T09:52:02;1999.90;;;999.90;;
10571;SDS011;5334;48.928;12.704;2022-10-16T09:54:37;1999.90;;;999.90;;
10571;SDS011;5334;48.928;12.704;2022-10-16T09:57:13;1999.90;;;999.90;;
10571;SDS011;5334;48.928;12.704;2022-10-16T09:59:46;1999.90;;;999.90;;
10571;SDS011;5334;48.928;12.704;2022-10-16T10:02:14;1999.90;;;999.90;;
10571;SDS011;5334;48.928;12.704;2022-10-16T10:04:46;1999.90;;;999.90;;
10571;SDS011;5334;48.928;12.704;2022-10-16T10:07:18;1999.90;;;999.90;;
10571;SDS011;5334;48.928;12.704;2022-10-16T10:09:52;1999.90;;;999.90;;
10571;SDS011;5334;48.928;12.704;2022-10-16T10:12:24;1999.90;;;999.90;;
10571;SDS011;5334;48.928;12.704;2022-10-16T10:14:51;1999.90;;;999.90;;
10571;SDS011;5334;48.928;12.704;2022-10-16T10:17:21;1999.90;;;999.90;;
10571;SDS011;5334;48.928;12.704;2022-10-16T10:19:54;1999.90;;;999.90;;
10571;SDS011;5334;48.928;12.704;2022-10-16T10:27:21;1999.90;;;999.90;;
10571;SDS011;5334;48.928;12.704;2022-10-16T10:29:54;1999.90;;;999.90;;
10571;SDS011;5334;48.928;12.704;2022-10-16T10:32:41;1999.90;;;999.90;;
10571;SDS011;5334;48.928;12.704;2022-10-16T10:35:54;1999.90;;;999.90;;
10571;SDS011;5334;48.928;12.704;2022-10-16T10:38:27;1999.90;;;999.90;;
10571;SDS011;5334;48.928;12.704;2022-10-16T10:47:13;1999.90;;;999.90;;
10571;SDS011;5334;48.928;12.704;2022-10-16T10:57:22;1999.90;;;999.90;;
10571;SDS011;5334;48.928;12.704;2022-10-16T11:05:50;1999.90;;;999.90;;
10571;SDS011;5334;48.928;12.704;2022-10-16T11:08:23;1999.90;;;999.90;;
10571;SDS011;5334;48.928;12.704;2022-10-16T11:11:43;71.70;;;68.47;;
10571;SDS011;5334;48.928;12.704;2022-10-16T11:16:29;1999.90;;;999.90;;
10571;SDS011;5334;48.928;12.704;2022-10-16T11:19:03;1999.90;;;999.90;;
10571;SDS011;5334;48.928;12.704;2022-10-16T11:21:44;1999.90;;;999.90;;
10571;SDS011;5334;48.928;12.704;2022-10-16T11:24:20;1999.90;;;999.90;;
10571;SDS011;5334;48.928;12.704;2022-10-16T11:27:12;1999.90;;;999.90;;
10571;SDS011;5334;48.928;12.704;2022-10-16T11:29:51;78.63;;;75.23;;
10571;SDS011;5334;48.928;12.704;2022-10-16T11:32:27;76.17;;;72.87;;
10571;SDS011;5334;48.928;12.704;2022-10-16T11:35:03;1999.90;;;999.90;;
10571;SDS011;5334;48.928;12.704;2022-10-16T11:37:44;83.33;;;79.73;;
10571;SDS011;5334;48.928;12.704;2022-10-16T11:40:19;67.30;;;64.33;;
10571;SDS011;5334;48.928;12.704;2022-10-16T11:43:01;64.57;;;61.47;;
10571;SDS011;5334;48.928;12.704;2022-10-16T11:45:33;77.90;;;74.23;;
10571;SDS011;5334;48.928;12.704;2022-10-16T11:50:41;77.33;;;73.83;;
10571;SDS011;5334;48.928;12.704;2022-10-16T11:55:42;66.50;;;63.57;;
10571;SDS011;5334;48.928;12.704;2022-10-16T12:03:31;54.97;;;52.57;;
10571;SDS011;5334;48.928;12.704;2022-10-16T12:08:48;66.93;;;64.03;;
10571;SDS011;5334;48.928;12.704;2022-10-16T12:14:06;63.43;;;60.67;;
10571;SDS011;5334;48.928;12.704;2022-10-16T12:16:56;59.33;;;56.73;;
10571;SDS011;5334;48.928;12.704;2022-10-16T12:19:23;55.50;;;53.10;;
10571;SDS011;5334;48.928;12.704;2022-10-16T12:21:52;67.97;;;64.97;;
10571;SDS011;5334;48.928;12.704;2022-10-16T12:27:04;50.07;;;47.87;;
10571;SDS011;5334;48.928;12.704;2022-10-16T12:31:59;60.83;;;58.13;;
10571;SDS011;5334;48.928;12.704;2022-10-16T12:34:44;69.13;;;66.13;;
10571;SDS011;5334;48.928;12.704;2022-10-16T12:37:15;71.40;;;68.23;;
10571;SDS011;5334;48.928;12.704;2022-10-16T12:39:56;64.37;;;61.57;;
10571;SDS011;5334;48.928;12.704;2022-10-16T12:44:52;68.90;;;65.90;;
10571;SDS011;5334;48.928;12.704;2022-10-16T12:49:56;62.57;;;59.83;;
10571;SDS011;5334;48.928;12.704;2022-10-16T12:52:26;74.73;;;71.07;;
10571;SDS011;5334;48.928;12.704;2022-10-16T12:54:59;62.63;;;59.90;;
10571;SDS011;5334;48.928;12.704;2022-10-16T12:57:38;68.63;;;65.63;;
10571;SDS011;5334;48.928;12.704;2022-10-16T13:00:31;62.27;;;59.57;;
10571;SDS011;5334;48.928;12.704;2022-10-16T13:08:39;55.47;;;53.07;;
10571;SDS011;5334;48.928;12.704;2022-10-16T13:17:24;68.10;;;65.13;;
10571;SDS011;5334;48.928;12.704;2022-10-16T13:20:03;64.93;;;62.10;;
10571;SDS011;5334;48.928;12.704;2022-10-16T13:22:40;71.87;;;68.70;;
10571;SDS011;5334;48.928;12.704;2022-10-16T13:28:31;67.40;;;64.47;;
10571;SDS011;5334;48.928;12.704;2022-10-16T13:30:59;67.33;;;64.40;;
10571;SDS011;5334;48.928;12.704;2022-10-16T13:35:53;71.57;;;68.43;;
10571;SDS011;5334;48.928;12.704;2022-10-16T13:38:21;73.20;;;70.03;;
10571;SDS011;5334;48.928;12.704;2022-10-16T13:43:23;60.87;;;58.20;;
10571;SDS011;5334;48.928;12.704;2022-10-16T13:45:53;55.87;;;53.43;;
10571;SDS011;5334;48.928;12.704;2022-10-16T13:48:20;54.37;;;51.97;;
10571;SDS011;5334;48.928;12.704;2022-10-16T13:50:45;59.07;;;56.47;;
10571;SDS011;5334;48.928;12.704;2022-10-16T13:53:14;52.83;;;50.53;;
10571;SDS011;5334;48.928;12.704;2022-10-16T13:55:40;57.13;;;54.67;;
10571;SDS011;5334;48.928;12.704;2022-10-16T13:58:11;73.60;;;70.37;;
10571;SDS011;5334;48.928;12.704;2022-10-16T14:00:39;82.00;;;78.40;;
10571;SDS011;5334;48.928;12.704;2022-10-16T14:03:13;64.90;;;62.10;;
10571;SDS011;5334;48.928;12.704;2022-10-16T14:05:50;56.27;;;53.80;;
10571;SDS011;5334;48.928;12.704;2022-10-16T14:08:18;62.00;;;59.30;;
10571;SDS011;5334;48.928;12.704;2022-10-16T14:10:47;58.97;;;56.37;;
10571;SDS011;5334;48.928;12.704;2022-10-16T14:13:18;66.27;;;63.37;;
10571;SDS011;5334;48.928;12.704;2022-10-16T14:15:49;84.90;;;81.23;;
10571;SDS011;5334;48.928;12.704;2022-10-16T14:18:21;60.50;;;57.87;;
10571;SDS011;5334;48.928;12.704;2022-10-16T14:20:49;57.80;;;55.30;;
10571;SDS011;5334;48.928;12.704;2022-10-16T14:23:23;74.07;;;70.33;;
10571;SDS011;5334;48.928;12.704;2022-10-16T14:25:51;60.30;;;57.70;;
10571;SDS011;5334;48.928;12.704;2022-10-16T14:30:54;55.33;;;52.93;;
10571;SDS011;5334;48.928;12.704;2022-10-16T14:33:25;59.43;;;56.83;;
10571;SDS011;5334;48.928;12.704;2022-10-16T14:38:34;62.63;;;59.90;;
10571;SDS011;5334;48.928;12.704;2022-10-16T14:41:00;58.40;;;55.80;;
10571;SDS011;5334;48.928;12.704;2022-10-16T14:43:36;64.67;;;61.87;;
10571;SDS011;5334;48.928;12.704;2022-10-16T14:46:10;55.40;;;52.97;;
10571;SDS011;5334;48.928;12.704;2022-10-16T14:48:42;59.63;;;57.07;;
10571;SDS011;5334;48.928;12.704;2022-10-16T14:51:14;70.93;;;67.73;;
10571;SDS011;5334;48.928;12.704;2022-10-16T14:53:41;64.23;;;61.43;;
10571;SDS011;5334;48.928;12.704;2022-10-16T14:56:16;54.57;;;52.17;;
10571;SDS011;5334;48.928;12.704;2022-10-16T14:58:47;60.43;;;57.83;;
10571;SDS011;5334;48.928;12.704;2022-10-16T15:01:14;66.27;;;63.37;;
10571;SDS011;5334;48.928;12.704;2022-10-16T15:03:40;59.43;;;56.43;;
10571;SDS011;5334;48.928;12.704;2022-10-16T15:06:12;55.63;;;53.23;;
10571;SDS011;5334;48.928;12.704;2022-10-16T15:08:39;53.40;;;51.03;;
10571;SDS011;5334;48.928;12.704;2022-10-16T15:11:13;59.57;;;56.97;;
10571;SDS011;5334;48.928;12.704;2022-10-16T15:13:44;57.97;;;55.47;;
10571;SDS011;5334;48.928;12.704;2022-10-16T15:16:15;66.70;;;63.80;;
10571;SDS011;5334;48.928;12.704;2022-10-16T15:18:42;56.97;;;54.47;;
10571;SDS011;5334;48.928;12.704;2022-10-16T15:21:08;60.27;;;57.67;;
10571;SDS011;5334;48.928;12.704;2022-10-16T15:23:45;60.17;;;57.53;;
10571;SDS011;5334;48.928;12.704;2022-10-16T15:26:11;55.57;;;53.17;;
10571;SDS011;5334;48.928;12.704;2022-10-16T15:28:36;66.03;;;63.13;;
10571;SDS011;5334;48.928;12.704;2022-10-16T15:31:02;65.27;;;62.47;;
10571;SDS011;5334;48.928;12.704;2022-10-16T15:33:29;64.43;;;61.63;;
10571;SDS011;5334;48.928;12.704;2022-10-16T15:35:59;59.77;;;57.13;;
10571;SDS011;5334;48.928;12.704;2022-10-16T15:38:25;69.43;;;66.43;;
10571;SDS011;5334;48.928;12.704;2022-10-16T15:40:55;54.70;;;52.30;;
10571;SDS011;5334;48.928;12.704;2022-10-16T15:43:21;72.93;;;69.77;;
10571;SDS011;5334;48.928;12.704;2022-10-16T15:46:09;66.83;;;63.93;;
10571;SDS011;5334;48.928;12.704;2022-10-16T15:48:36;56.93;;;54.47;;
10571;SDS011;5334;48.928;12.704;2022-10-16T15:51:04;62.07;;;59.37;;
10571;SDS011;5334;48.928;12.704;2022-10-16T15:53:31;72.33;;;68.93;;
10571;SDS011;5334;48.928;12.704;2022-10-16T15:55:57;66.93;;;64.03;;
10571;SDS011;5334;48.928;12.704;2022-10-16T15:58:22;66.17;;;63.30;;
10571;SDS011;5334;48.928;12.704;2022-10-16T16:00:55;64.30;;;61.50;;
10571;SDS011;5334;48.928;12.704;2022-10-16T16:03:22;88.07;;;81.50;;
10571;SDS011;5334;48.928;12.704;2022-10-16T16:05:48;65.33;;;62.20;;
10571;SDS011;5334;48.928;12.704;2022-10-16T16:08:13;59.53;;;56.93;;
10571;SDS011;5334;48.928;12.704;2022-10-16T16:10:39;57.97;;;55.47;;
10571;SDS011;5334;48.928;12.704;2022-10-16T16:13:06;61.70;;;59.00;;
10571;SDS011;5334;48.928;12.704;2022-10-16T16:15:31;64.07;;;61.27;;